createdAt,value
2018-03-04T00:00:07.594Z,0.24
2018-03-04T00:01:07.508Z,0.32
2018-03-04T00:02:07.426Z,0.21
2018-03-04T00:03:07.361Z,0.21
2018-03-04T00:04:07.260Z,0.29
2018-03-04T00:05:07.173Z,0.24
2018-03-04T00:06:07.104Z,0.16
2018-03-04T00:07:07.011Z,0.24
2018-03-04T00:08:06.929Z,0.24
2018-03-04T00:09:06.853Z,0.24
2018-03-04T00:10:06.763Z,0.25
2018-03-04T00:11:06.682Z,0.29
2018-03-04T00:12:06.604Z,0.31
2018-03-04T00:13:06.511Z,0.32
2018-03-04T00:14:06.431Z,0.29
2018-03-04T00:15:06.359Z,0.27
2018-03-04T00:16:06.269Z,0.22
2018-03-04T00:17:06.186Z,0.24
2018-03-04T00:18:06.113Z,0.28
2018-03-04T00:19:06.017Z,0.24
2018-03-04T00:20:05.942Z,0.27
2018-03-04T00:21:05.864Z,0.22
2018-03-04T00:22:05.770Z,0.34
2018-03-04T00:23:05.690Z,0.24
2018-03-04T00:24:05.614Z,0.22
2018-03-04T00:25:05.523Z,0.24
2018-03-04T00:26:05.443Z,0.17
2018-03-04T00:27:05.365Z,0.34
2018-03-04T00:28:05.273Z,0.31
2018-03-04T00:29:05.192Z,0.28
2018-03-04T00:30:05.123Z,0.17
2018-03-04T00:31:05.030Z,0.21
2018-03-04T00:32:04.945Z,0.22
2018-03-04T00:33:04.861Z,0.21
2018-03-04T00:34:04.785Z,0.17
2018-03-04T00:35:04.696Z,0.27
2018-03-04T00:36:04.621Z,0.29
2018-03-04T00:37:04.529Z,0.25
2018-03-04T00:38:04.447Z,0.24
2018-03-04T00:39:04.373Z,0.21
2018-03-04T00:40:04.280Z,0.25
2018-03-04T00:41:04.199Z,0.24
2018-03-04T00:42:04.123Z,0.27
2018-03-04T00:43:04.035Z,0.18
2018-03-04T00:44:03.950Z,0.18
2018-03-04T00:45:03.876Z,0.28
2018-03-04T00:46:03.790Z,0.25
2018-03-04T00:47:03.708Z,0.13
2018-03-04T00:48:03.629Z,0.28
2018-03-04T00:49:03.539Z,0.25
2018-03-04T00:50:03.456Z,0.34
2018-03-04T00:51:03.384Z,0.17
2018-03-04T00:52:03.288Z,0.24
2018-03-04T00:53:03.211Z,0.21
2018-03-04T00:54:03.136Z,0.28
2018-03-04T00:55:03.051Z,0.24
2018-03-04T00:56:02.957Z,0.25
2018-03-04T00:57:02.883Z,0.22
2018-03-04T00:58:02.794Z,0.18
2018-03-04T00:59:02.710Z,0.22
2018-03-04T01:00:02.635Z,0.28
2018-03-04T01:01:02.546Z,0.28
2018-03-04T01:02:02.466Z,0.22
2018-03-04T01:03:02.381Z,0.18
2018-03-04T01:04:02.305Z,0.27
2018-03-04T01:05:02.222Z,0.17
2018-03-04T01:06:02.133Z,0.22
2018-03-04T01:07:02.056Z,0.17
2018-03-04T01:08:01.968Z,0.21
2018-03-04T01:09:01.883Z,0.27
2018-03-04T01:10:01.803Z,0.22
2018-03-04T01:11:01.715Z,0.21
2018-03-04T01:12:01.635Z,0.18
2018-03-04T01:13:01.561Z,0.18
2018-03-04T01:14:01.470Z,0.17
2018-03-04T01:15:01.388Z,0.14
2018-03-04T01:16:01.308Z,0.13
2018-03-04T01:17:01.227Z,0.03
2018-03-04T01:18:01.142Z,0.03
2018-03-04T01:19:01.066Z,0.09
2018-03-04T01:20:00.987Z,0.03
2018-03-04T01:21:00.893Z,0.04
2018-03-04T01:22:00.820Z,0.04
2018-03-04T01:23:00.728Z,-0.01
2018-03-04T01:24:00.642Z,0.09
2018-03-04T01:25:00.569Z,0.11
2018-03-04T01:26:00.496Z,0.09
2018-03-04T01:27:00.396Z,-0.01
2018-03-04T01:28:00.313Z,0.01
2018-03-04T01:29:00.229Z,0.04
2018-03-04T01:30:00.153Z,0.09
2018-03-04T01:31:00.080Z,0.09
2018-03-04T01:31:59.980Z,0.10
2018-03-04T01:32:59.905Z,0.04
2018-03-04T01:33:59.817Z,0.06
2018-03-04T01:34:59.734Z,0.11
2018-03-04T01:35:59.651Z,0.16
2018-03-04T01:36:59.573Z,0.13
2018-03-04T01:37:59.487Z,0.10
2018-03-04T01:38:59.408Z,0.14
2018-03-04T01:39:59.318Z,0.18
2018-03-04T01:40:59.244Z,0.16
2018-03-04T01:41:59.156Z,0.18
2018-03-04T01:42:59.077Z,0.27
2018-03-04T01:43:58.987Z,0.25
2018-03-04T01:44:58.905Z,0.28
2018-03-04T01:45:58.830Z,0.22
2018-03-04T01:46:58.751Z,0.24
2018-03-04T01:47:58.706Z,0.28
2018-03-04T01:48:58.580Z,0.24
2018-03-04T01:49:58.493Z,0.17
2018-03-04T01:50:58.407Z,0.21
2018-03-04T01:51:58.331Z,0.21
2018-03-04T01:52:58.248Z,0.27
2018-03-04T01:53:58.158Z,0.29
2018-03-04T01:54:58.079Z,0.24
2018-03-04T01:55:57.996Z,0.24
2018-03-04T01:56:57.920Z,0.17
2018-03-04T01:57:57.828Z,0.22
2018-03-04T01:58:57.752Z,0.25
2018-03-04T01:59:57.662Z,0.25
2018-03-04T02:00:57.585Z,0.29
2018-03-04T02:01:57.497Z,0.27
2018-03-04T02:02:57.413Z,0.22
2018-03-04T02:03:57.344Z,0.27
2018-03-04T02:04:57.258Z,0.21
2018-03-04T02:05:57.175Z,0.17
2018-03-04T02:06:57.086Z,0.24
2018-03-04T02:07:57.000Z,0.18
2018-03-04T02:08:56.919Z,0.22
2018-03-04T02:09:56.844Z,0.17
2018-03-04T02:10:56.753Z,0.24
2018-03-04T02:11:56.679Z,0.24
2018-03-04T02:12:56.587Z,0.22
2018-03-04T02:13:56.506Z,0.21
2018-03-04T02:14:56.430Z,0.16
2018-03-04T02:15:56.337Z,0.16
2018-03-04T02:16:56.255Z,0.11
2018-03-04T02:17:56.182Z,0.01
2018-03-04T02:18:56.094Z,0.06
2018-03-04T02:19:56.008Z,0.04
2018-03-04T02:20:55.932Z,0.07
2018-03-04T02:21:55.842Z,0.06
2018-03-04T02:22:55.768Z,0.07
2018-03-04T02:23:55.677Z,0.06
2018-03-04T02:24:55.602Z,0.06
2018-03-04T02:25:55.525Z,0.03
2018-03-04T02:26:55.434Z,0.07
2018-03-04T02:27:55.345Z,0.06
2018-03-04T02:28:55.264Z,0.06
2018-03-04T02:29:55.183Z,-0.01
2018-03-04T02:30:55.103Z,0.03
2018-03-04T02:31:55.024Z,-0.01
2018-03-04T02:32:54.932Z,0.01
2018-03-04T02:33:54.853Z,0.04
2018-03-04T02:34:54.771Z,0.04
2018-03-04T02:35:54.686Z,0.01
2018-03-04T02:36:54.609Z,0.01
2018-03-04T02:37:54.534Z,0.01
2018-03-04T02:38:54.436Z,0.03
2018-03-04T02:39:54.360Z,0.01
2018-03-04T02:40:54.279Z,-0.01
2018-03-04T02:41:54.194Z,-0.02
2018-03-04T02:42:54.120Z,-0.02
2018-03-04T02:43:54.032Z,0.04
2018-03-04T02:44:53.939Z,0.06
2018-03-04T02:45:53.871Z,-0.01
2018-03-04T02:46:53.784Z,0.03
2018-03-04T02:47:53.692Z,-0.01
2018-03-04T02:48:53.619Z,0.06
2018-03-04T02:49:53.528Z,0.06
2018-03-04T02:50:53.453Z,0.06
2018-03-04T02:51:53.362Z,0.04
2018-03-04T02:52:53.276Z,0.01
2018-03-04T02:53:53.194Z,0.04
2018-03-04T02:54:53.121Z,0.07
2018-03-04T02:55:53.036Z,0.03
2018-03-04T02:56:52.946Z,-0.01
2018-03-04T02:57:52.874Z,0.03
2018-03-04T02:58:52.782Z,0.07
2018-03-04T02:59:52.698Z,0.04
2018-03-04T03:00:52.622Z,0.03
2018-03-04T03:01:52.534Z,0.09
2018-03-04T03:02:52.447Z,0.13
2018-03-04T03:03:52.366Z,0.07
2018-03-04T03:04:52.294Z,0.04
2018-03-04T03:05:52.202Z,0.11
2018-03-04T03:06:52.116Z,0.14
2018-03-04T03:07:52.033Z,0.13
2018-03-04T03:08:51.951Z,0.18
2018-03-04T03:09:51.875Z,0.13
2018-03-04T03:10:51.796Z,0.04
2018-03-04T03:11:51.706Z,0.18
2018-03-04T03:12:51.631Z,0.21
2018-03-04T03:13:51.540Z,0.22
2018-03-04T03:14:51.456Z,0.17
2018-03-04T03:15:51.380Z,0.16
2018-03-04T03:16:51.298Z,0.10
2018-03-04T03:17:51.210Z,0.17
2018-03-04T03:18:51.125Z,0.14
2018-03-04T03:19:51.041Z,0.21
2018-03-04T03:20:50.962Z,0.21
2018-03-04T03:21:50.884Z,0.22
2018-03-04T03:22:50.793Z,0.16
2018-03-04T03:23:50.718Z,0.21
2018-03-04T03:24:50.627Z,0.21
2018-03-04T03:25:50.547Z,0.22
2018-03-04T03:26:50.464Z,0.17
2018-03-04T03:27:50.383Z,0.25
2018-03-04T03:28:50.296Z,0.21
2018-03-04T03:29:50.214Z,0.17
2018-03-04T03:30:50.141Z,0.24
2018-03-04T03:31:50.056Z,0.28
2018-03-04T03:32:49.965Z,0.17
2018-03-04T03:33:49.890Z,0.17
2018-03-04T03:34:49.805Z,0.22
2018-03-04T03:35:49.719Z,0.22
2018-03-04T03:36:49.643Z,0.25
2018-03-04T03:37:49.561Z,0.22
2018-03-04T03:38:49.474Z,0.32
2018-03-04T03:39:49.394Z,0.36
2018-03-04T03:40:49.314Z,0.29
2018-03-04T03:41:49.223Z,0.29
2018-03-04T03:42:49.144Z,0.32
2018-03-04T03:43:49.067Z,0.27
2018-03-04T03:44:48.972Z,0.35
2018-03-04T03:45:48.891Z,0.27
2018-03-04T03:46:48.820Z,0.35
2018-03-04T03:47:48.721Z,0.29
2018-03-04T03:48:48.651Z,0.28
2018-03-04T03:49:48.564Z,0.35
2018-03-04T03:50:48.474Z,0.39
2018-03-04T03:51:48.400Z,0.35
2018-03-04T03:52:48.317Z,0.36
2018-03-04T03:53:48.227Z,0.36
2018-03-04T03:54:48.154Z,0.34
2018-03-04T03:55:48.067Z,0.32
2018-03-04T03:56:47.977Z,0.27
2018-03-04T03:57:47.911Z,0.28
2018-03-04T03:58:47.822Z,0.31
2018-03-04T03:59:47.731Z,0.32
2018-03-04T04:00:47.654Z,0.32
2018-03-04T04:01:47.571Z,0.35
2018-03-04T04:02:47.482Z,0.36
2018-03-04T04:03:47.406Z,0.39
2018-03-04T04:04:47.323Z,0.40
2018-03-04T04:05:47.232Z,0.35
2018-03-04T04:06:47.163Z,0.36
2018-03-04T04:07:47.077Z,0.35
2018-03-04T04:08:46.984Z,0.35
2018-03-04T04:09:46.907Z,0.36
2018-03-04T04:10:46.820Z,0.43
2018-03-04T04:11:46.741Z,0.35
2018-03-04T04:12:46.655Z,0.43
2018-03-04T04:13:46.572Z,0.43
2018-03-04T04:14:46.489Z,0.45
2018-03-04T04:15:46.416Z,0.42
2018-03-04T04:16:46.324Z,0.42
2018-03-04T04:17:46.247Z,0.42
2018-03-04T04:18:46.158Z,0.46
2018-03-04T04:19:46.073Z,0.40
2018-03-04T04:20:45.991Z,0.43
2018-03-04T04:21:45.915Z,0.40
2018-03-04T04:22:45.831Z,0.43
2018-03-04T04:23:45.746Z,0.47
2018-03-04T04:24:45.660Z,0.45
2018-03-04T04:25:45.580Z,0.42
2018-03-04T04:26:45.499Z,0.47
2018-03-04T04:27:45.425Z,0.43
2018-03-04T04:28:45.337Z,0.45
2018-03-04T04:29:45.254Z,0.45
2018-03-04T04:30:45.164Z,0.45
2018-03-04T04:31:45.113Z,0.46
2018-03-04T04:32:45.006Z,0.49
2018-03-04T04:33:44.924Z,0.46
2018-03-04T04:34:44.835Z,0.52
2018-03-04T04:35:44.762Z,0.52
2018-03-04T04:36:44.670Z,0.56
2018-03-04T04:37:44.586Z,0.52
2018-03-04T04:38:44.505Z,0.52
2018-03-04T04:39:44.459Z,0.53
2018-03-04T04:40:44.347Z,0.49
2018-03-04T04:41:44.261Z,0.49
2018-03-04T04:42:44.172Z,0.57
2018-03-04T04:43:44.085Z,0.56
2018-03-04T04:44:44.006Z,0.52
2018-03-04T04:45:43.931Z,0.43
2018-03-04T04:46:43.846Z,0.56
2018-03-04T04:47:43.767Z,0.40
2018-03-04T04:48:43.675Z,0.52
2018-03-04T04:49:43.876Z,0.47
2018-03-04T04:50:43.513Z,0.47
2018-03-04T04:51:43.433Z,0.47
2018-03-04T04:52:43.379Z,0.46
2018-03-04T04:53:43.263Z,0.50
2018-03-04T04:54:43.290Z,0.46
2018-03-04T04:55:43.100Z,0.46
2018-03-04T04:56:43.098Z,0.50
2018-03-04T04:57:42.933Z,0.52
2018-03-04T04:58:42.906Z,0.49
2018-03-04T04:59:42.777Z,0.53
2018-03-04T05:00:42.714Z,0.50
2018-03-04T05:01:42.602Z,0.49
2018-03-04T05:02:42.622Z,0.61
2018-03-04T05:03:42.437Z,0.59
2018-03-04T05:04:42.358Z,0.52
2018-03-04T05:05:42.274Z,0.57
2018-03-04T05:06:42.241Z,0.57
2018-03-04T05:07:42.112Z,0.56
2018-03-04T05:08:42.049Z,0.49
2018-03-04T05:09:41.943Z,0.53
2018-03-04T05:10:41.866Z,0.53
2018-03-04T05:11:41.777Z,0.49
2018-03-04T05:12:41.700Z,0.53
2018-03-04T05:13:41.618Z,0.57
2018-03-04T05:14:41.576Z,0.62
2018-03-04T05:15:41.445Z,0.62
2018-03-04T05:16:41.384Z,0.65
2018-03-04T05:17:41.281Z,0.66
2018-03-04T05:18:41.206Z,0.66
2018-03-04T05:19:41.114Z,0.56
2018-03-04T05:20:41.038Z,0.56
2018-03-04T05:21:40.958Z,0.56
2018-03-04T05:22:40.910Z,0.61
2018-03-04T05:23:40.781Z,0.59
2018-03-04T05:24:40.709Z,0.56
2018-03-04T05:25:40.619Z,0.57
2018-03-04T05:26:40.629Z,0.53
2018-03-04T05:27:40.454Z,0.57
2018-03-04T05:28:40.383Z,0.66
2018-03-04T05:29:40.296Z,0.66
2018-03-04T05:30:40.215Z,0.65
2018-03-04T05:31:40.148Z,0.64
2018-03-04T05:32:40.043Z,0.66
2018-03-04T05:33:39.968Z,0.64
2018-03-04T05:34:39.876Z,0.65
2018-03-04T05:35:39.869Z,0.66
2018-03-04T05:36:39.714Z,0.62
2018-03-04T05:37:39.673Z,0.66
2018-03-04T05:38:39.546Z,0.68
2018-03-04T05:39:39.468Z,0.68
2018-03-04T05:40:39.376Z,0.64
2018-03-04T05:41:39.298Z,0.69
2018-03-04T05:42:39.222Z,0.66
2018-03-04T05:43:39.132Z,0.66
2018-03-04T05:44:39.053Z,0.64
2018-03-04T05:45:38.976Z,0.72
2018-03-04T05:46:38.887Z,0.61
2018-03-04T05:47:38.802Z,0.82
2018-03-04T05:48:38.726Z,0.79
2018-03-04T05:49:38.638Z,0.74
2018-03-04T05:50:38.555Z,0.77
2018-03-04T05:51:38.579Z,0.74
2018-03-04T05:52:38.468Z,0.77
2018-03-04T05:53:38.309Z,0.79
2018-03-04T05:54:38.232Z,0.83
2018-03-04T05:55:38.144Z,0.72
2018-03-04T05:56:38.060Z,0.74
2018-03-04T05:57:37.991Z,0.83
2018-03-04T05:58:37.894Z,0.71
2018-03-04T05:59:37.813Z,0.79
2018-03-04T06:00:37.780Z,0.77
2018-03-04T06:01:37.647Z,0.74
2018-03-04T06:02:37.573Z,0.86
2018-03-04T06:03:37.594Z,0.86
2018-03-04T06:04:37.397Z,0.82
2018-03-04T06:05:37.324Z,0.83
2018-03-04T06:06:37.307Z,0.83
2018-03-04T06:07:37.151Z,0.83
2018-03-04T06:08:37.072Z,0.87
2018-03-04T06:09:37.018Z,0.77
2018-03-04T06:10:36.903Z,0.87
2018-03-04T06:11:36.822Z,0.82
2018-03-04T06:12:36.833Z,0.89
2018-03-04T06:13:36.655Z,0.80
2018-03-04T06:14:36.578Z,0.82
2018-03-04T06:15:36.549Z,0.90
2018-03-04T06:16:36.406Z,0.86
2018-03-04T06:17:36.325Z,0.86
2018-03-04T06:18:36.361Z,0.83
2018-03-04T06:19:36.162Z,0.90
2018-03-04T06:20:36.076Z,0.80
2018-03-04T06:21:36.075Z,0.84
2018-03-04T06:22:35.910Z,0.94
2018-03-04T06:23:35.831Z,0.86
2018-03-04T06:24:35.785Z,0.82
2018-03-04T06:25:35.674Z,0.83
2018-03-04T06:26:35.589Z,0.86
2018-03-04T06:27:35.602Z,0.93
2018-03-04T06:28:35.420Z,0.84
2018-03-04T06:29:35.338Z,0.84
2018-03-04T06:30:35.265Z,0.86
2018-03-04T06:31:35.221Z,0.80
2018-03-04T06:32:35.089Z,0.94
2018-03-04T06:33:35.026Z,0.98
2018-03-04T06:34:34.933Z,0.97
2018-03-04T06:35:34.843Z,0.87
2018-03-04T06:36:34.844Z,0.93
2018-03-04T06:37:34.676Z,0.92
2018-03-04T06:38:34.598Z,0.89
2018-03-04T06:39:34.556Z,0.90
2018-03-04T06:40:34.428Z,0.86
2018-03-04T06:41:34.350Z,0.84
2018-03-04T06:42:34.369Z,0.86
2018-03-04T06:43:34.181Z,0.97
2018-03-04T06:44:34.100Z,0.86
2018-03-04T06:45:34.082Z,0.92
2018-03-04T06:46:33.945Z,0.84
2018-03-04T06:47:33.846Z,0.93
2018-03-04T06:48:33.792Z,0.93
2018-03-04T06:49:33.689Z,0.93
2018-03-04T06:50:33.607Z,0.94
2018-03-04T06:51:33.609Z,0.92
2018-03-04T06:52:33.442Z,0.94
2018-03-04T06:53:33.358Z,0.93
2018-03-04T06:54:33.318Z,0.90
2018-03-04T06:55:33.193Z,0.84
2018-03-04T06:56:33.111Z,0.84
2018-03-04T06:57:33.135Z,0.82
2018-03-04T06:58:32.950Z,0.93
2018-03-04T06:59:32.863Z,0.86
2018-03-04T07:00:32.848Z,0.90
2018-03-04T07:01:32.699Z,0.86
2018-03-04T07:02:32.618Z,0.94
2018-03-04T07:03:32.562Z,0.83
2018-03-04T07:04:32.453Z,0.92
2018-03-04T07:05:32.370Z,0.83
2018-03-04T07:06:32.372Z,0.84
2018-03-04T07:07:32.208Z,0.84
2018-03-04T07:08:32.124Z,0.86
2018-03-04T07:09:32.088Z,0.86
2018-03-04T07:10:31.968Z,0.87
2018-03-04T07:11:31.875Z,0.83
2018-03-04T07:12:31.901Z,0.94
2018-03-04T07:13:31.714Z,0.94
2018-03-04T07:14:31.629Z,1.00
2018-03-04T07:15:31.613Z,0.93
2018-03-04T07:16:31.464Z,0.97
2018-03-04T07:17:31.386Z,1.02
2018-03-04T07:18:31.301Z,1.00
2018-03-04T07:19:31.334Z,1.02
2018-03-04T07:20:31.135Z,1.05
2018-03-04T07:21:31.140Z,0.98
2018-03-04T07:22:30.968Z,0.92
2018-03-04T07:23:30.912Z,0.98
2018-03-04T07:24:30.807Z,1.00
2018-03-04T07:25:30.756Z,0.94
2018-03-04T07:26:30.641Z,1.00
2018-03-04T07:27:30.669Z,0.94
2018-03-04T07:28:30.475Z,0.98
2018-03-04T07:29:30.394Z,1.01
2018-03-04T07:30:30.381Z,1.00
2018-03-04T07:31:30.230Z,0.98
2018-03-04T07:32:30.148Z,1.07
2018-03-04T07:33:30.090Z,1.04
2018-03-04T07:34:29.983Z,1.01
2018-03-04T07:35:29.899Z,1.05
2018-03-04T07:36:29.907Z,1.08
2018-03-04T07:37:29.739Z,1.18
2018-03-04T07:38:29.654Z,1.18
2018-03-04T07:39:29.621Z,1.16
2018-03-04T07:40:29.487Z,1.20
2018-03-04T07:41:29.408Z,1.19
2018-03-04T07:42:29.438Z,1.08
2018-03-04T07:43:29.241Z,1.20
2018-03-04T07:44:29.158Z,1.19
2018-03-04T07:45:29.146Z,1.23
2018-03-04T07:46:28.999Z,1.28
2018-03-04T07:47:28.913Z,1.23
2018-03-04T07:48:28.833Z,1.28
2018-03-04T07:49:28.867Z,1.29
2018-03-04T07:50:28.669Z,1.20
2018-03-04T07:51:28.675Z,1.30
2018-03-04T07:52:28.566Z,1.28
2018-03-04T07:53:28.419Z,1.26
2018-03-04T07:54:28.383Z,1.28
2018-03-04T07:55:28.259Z,1.26
2018-03-04T07:56:28.171Z,1.36
2018-03-04T07:57:28.098Z,1.25
2018-03-04T07:58:28.011Z,1.37
2018-03-04T07:59:27.929Z,1.26
2018-03-04T08:00:27.915Z,1.29
2018-03-04T08:01:27.761Z,1.37
2018-03-04T08:02:27.683Z,1.44
2018-03-04T08:03:28.406Z,1.38
2018-03-04T08:04:27.651Z,1.43
2018-03-04T08:05:27.430Z,1.44
2018-03-04T08:06:27.440Z,1.41
2018-03-04T08:07:27.299Z,1.52
2018-03-04T08:08:27.188Z,1.43
2018-03-04T08:09:27.129Z,1.48
2018-03-04T08:10:27.058Z,1.46
2018-03-04T08:11:26.970Z,1.52
2018-03-04T08:12:26.862Z,1.52
2018-03-04T08:13:26.874Z,1.52
2018-03-04T08:14:26.794Z,1.52
2018-03-04T08:15:26.613Z,1.52
2018-03-04T08:16:26.583Z,1.52
2018-03-04T08:17:26.490Z,1.50
2018-03-04T08:18:26.369Z,1.54
2018-03-04T08:19:26.399Z,1.47
2018-03-04T08:20:26.305Z,1.50
2018-03-04T08:21:26.123Z,1.56
2018-03-04T08:22:26.115Z,1.58
2018-03-04T08:23:25.957Z,1.61
2018-03-04T08:24:25.922Z,1.64
2018-03-04T08:25:25.796Z,1.59
2018-03-04T08:26:25.711Z,1.59
2018-03-04T08:27:25.629Z,1.62
2018-03-04T08:28:25.641Z,1.56
2018-03-04T08:29:25.544Z,1.69
2018-03-04T08:30:25.387Z,1.69
2018-03-04T08:31:25.352Z,1.69
2018-03-04T08:32:25.221Z,1.79
2018-03-04T08:33:25.164Z,1.77
2018-03-04T08:34:25.062Z,1.82
2018-03-04T08:35:24.980Z,1.82
2018-03-04T08:36:24.892Z,1.82
2018-03-04T08:37:24.880Z,1.80
2018-03-04T08:38:24.730Z,1.84
2018-03-04T08:39:24.689Z,1.83
2018-03-04T08:40:24.581Z,1.87
2018-03-04T08:41:24.487Z,1.86
2018-03-04T08:42:24.405Z,1.83
2018-03-04T08:43:24.406Z,1.86
2018-03-04T08:44:24.311Z,1.84
2018-03-04T08:45:24.156Z,1.87
2018-03-04T08:46:24.129Z,1.90
2018-03-04T08:47:24.027Z,1.87
2018-03-04T08:48:23.909Z,1.83
2018-03-04T08:49:23.934Z,1.84
2018-03-04T08:50:23.840Z,1.77
2018-03-04T08:51:23.670Z,1.77
2018-03-04T08:52:23.647Z,1.69
2018-03-04T08:53:23.504Z,1.73
2018-03-04T08:54:23.456Z,1.69
2018-03-04T08:55:23.339Z,1.73
2018-03-04T08:56:23.258Z,1.68
2018-03-04T08:57:23.175Z,1.64
2018-03-04T08:58:23.174Z,1.65
2018-03-04T08:59:23.081Z,1.80
2018-03-04T09:00:22.930Z,1.86
2018-03-04T09:01:22.887Z,1.80
2018-03-04T09:02:22.791Z,1.82
2018-03-04T09:03:22.681Z,1.82
2018-03-04T09:04:22.701Z,1.86
2018-03-04T09:05:22.606Z,1.86
2018-03-04T09:06:22.438Z,1.83
2018-03-04T09:07:22.415Z,1.86
2018-03-04T09:08:22.315Z,1.80
2018-03-04T09:09:22.196Z,1.84
2018-03-04T09:10:22.226Z,1.90
2018-03-04T09:11:22.133Z,1.86
2018-03-04T09:12:21.949Z,1.92
2018-03-04T09:13:21.947Z,1.99
2018-03-04T09:14:21.848Z,1.98
2018-03-04T09:15:21.703Z,1.95
2018-03-04T09:16:21.760Z,1.95
2018-03-04T09:17:21.562Z,2.06
2018-03-04T09:18:21.456Z,2.13
2018-03-04T09:19:21.469Z,2.10
2018-03-04T09:20:21.374Z,2.09
2018-03-04T09:21:21.212Z,2.05
2018-03-04T09:22:21.181Z,2.03
2018-03-04T09:23:21.107Z,1.98
2018-03-04T09:24:20.961Z,2.06
2018-03-04T09:25:20.990Z,2.16
2018-03-04T09:26:20.902Z,2.12
2018-03-04T09:27:20.722Z,2.16
2018-03-04T09:28:20.710Z,2.10
2018-03-04T09:29:20.558Z,2.09
2018-03-04T09:30:20.518Z,2.06
2018-03-04T09:31:20.393Z,2.26
2018-03-04T09:32:20.315Z,2.13
2018-03-04T09:33:20.234Z,2.13
2018-03-04T09:34:20.236Z,2.12
2018-03-04T09:35:20.141Z,2.13
2018-03-04T09:36:19.987Z,2.09
2018-03-04T09:37:19.948Z,2.09
2018-03-04T09:38:19.854Z,2.09
2018-03-04T09:39:19.746Z,2.16
2018-03-04T09:40:19.765Z,2.12
2018-03-04T09:41:19.672Z,2.10
2018-03-04T09:42:19.500Z,2.19
2018-03-04T09:43:19.478Z,2.23
2018-03-04T09:44:19.381Z,2.16
2018-03-04T09:45:19.250Z,2.30
2018-03-04T09:46:19.291Z,2.21
2018-03-04T09:47:19.197Z,2.20
2018-03-04T09:48:19.009Z,2.26
2018-03-04T09:49:19.007Z,2.34
2018-03-04T09:50:18.908Z,2.41
2018-03-04T09:51:18.769Z,2.41
2018-03-04T09:52:18.716Z,2.50
2018-03-04T09:53:18.619Z,2.48
2018-03-04T09:54:18.527Z,2.59
2018-03-04T09:55:18.531Z,2.49
2018-03-04T09:56:18.433Z,2.48
2018-03-04T09:57:18.275Z,2.55
2018-03-04T09:58:18.244Z,2.56
2018-03-04T09:59:18.148Z,2.50
2018-03-04T10:00:18.029Z,2.52
2018-03-04T10:01:18.061Z,2.53
2018-03-04T10:02:17.958Z,2.60
2018-03-04T10:03:17.786Z,2.63
2018-03-04T10:04:17.767Z,2.48
2018-03-04T10:05:17.673Z,2.56
2018-03-04T10:06:17.544Z,2.50
2018-03-04T10:07:17.480Z,2.57
2018-03-04T10:08:17.488Z,2.48
2018-03-04T10:09:17.300Z,2.50
2018-03-04T10:10:17.297Z,2.49
2018-03-04T10:11:17.200Z,2.63
2018-03-04T10:12:17.070Z,2.67
2018-03-04T10:13:17.007Z,2.63
2018-03-04T10:14:16.894Z,2.48
2018-03-04T10:15:16.820Z,2.55
2018-03-04T10:16:16.733Z,2.53
2018-03-04T10:17:16.650Z,2.50
2018-03-04T10:18:16.572Z,2.59
2018-03-04T10:19:16.536Z,2.60
2018-03-04T10:20:16.413Z,2.71
2018-03-04T10:21:16.344Z,2.70
2018-03-04T10:22:16.244Z,2.70
2018-03-04T10:23:16.163Z,2.89
2018-03-04T10:24:16.083Z,2.68
2018-03-04T10:25:16.062Z,2.67
2018-03-04T10:26:15.920Z,2.77
2018-03-04T10:27:15.871Z,2.73
2018-03-04T10:28:15.753Z,2.78
2018-03-04T10:29:15.676Z,2.86
2018-03-04T10:30:15.596Z,2.89
2018-03-04T10:31:15.587Z,3.01
2018-03-04T10:32:15.436Z,2.98
2018-03-04T10:33:15.398Z,2.98
2018-03-04T10:34:15.274Z,3.01
2018-03-04T10:35:15.189Z,3.03
2018-03-04T10:36:15.106Z,3.01
2018-03-04T10:37:15.116Z,2.89
2018-03-04T10:38:14.944Z,2.95
2018-03-04T10:39:14.925Z,2.96
2018-03-04T10:40:14.791Z,2.93
2018-03-04T10:41:14.703Z,2.89
2018-03-04T10:42:14.626Z,2.88
2018-03-04T10:43:14.648Z,2.81
2018-03-04T10:44:14.466Z,2.89
2018-03-04T10:45:14.455Z,2.88
2018-03-04T10:46:14.298Z,2.96
2018-03-04T10:47:14.219Z,2.98
2018-03-04T10:48:14.136Z,2.98
2018-03-04T10:49:14.174Z,3.01
2018-03-04T10:50:13.976Z,3.06
2018-03-04T10:51:13.977Z,3.14
2018-03-04T10:52:13.815Z,3.10
2018-03-04T10:53:13.732Z,3.25
2018-03-04T10:54:13.654Z,3.29
2018-03-04T10:55:13.597Z,3.27
2018-03-04T10:56:13.490Z,3.29
2018-03-04T10:57:13.527Z,3.35
2018-03-04T10:58:13.335Z,3.43
2018-03-04T10:59:13.248Z,3.44
2018-03-04T11:00:13.167Z,3.59
2018-03-04T11:01:13.124Z,3.61
2018-03-04T11:02:13.004Z,3.61
2018-03-04T11:03:13.036Z,3.65
2018-03-04T11:04:12.849Z,3.66
2018-03-04T11:05:12.847Z,3.65
2018-03-04T11:06:12.680Z,3.72
2018-03-04T11:07:12.665Z,3.64
2018-03-04T11:08:12.524Z,3.75
2018-03-04T11:09:12.456Z,3.82
2018-03-04T11:10:12.362Z,3.87
2018-03-04T11:11:12.369Z,3.89
2018-03-04T11:12:12.203Z,4.01
2018-03-04T11:13:12.178Z,3.84
2018-03-04T11:14:12.038Z,3.98
2018-03-04T11:15:12.009Z,4.04
2018-03-04T11:16:11.879Z,4.08
2018-03-04T11:17:11.908Z,4.08
2018-03-04T11:18:11.730Z,4.10
2018-03-04T11:19:11.710Z,4.16
2018-03-04T11:20:11.558Z,4.20
2018-03-04T11:21:11.519Z,4.20
2018-03-04T11:22:11.393Z,4.19
2018-03-04T11:23:11.424Z,4.23
2018-03-04T11:24:11.239Z,4.37
2018-03-04T11:25:11.282Z,4.32
2018-03-04T11:26:11.078Z,4.36
2018-03-04T11:27:11.040Z,4.47
2018-03-04T11:28:10.917Z,4.64
2018-03-04T11:29:10.952Z,4.73
2018-03-04T11:30:10.758Z,4.88
2018-03-04T11:31:10.759Z,4.88
2018-03-04T11:32:10.601Z,5.03
2018-03-04T11:33:10.514Z,5.02
2018-03-04T11:34:10.454Z,4.98
2018-03-04T11:35:10.374Z,5.06
2018-03-04T11:36:10.280Z,5.17
2018-03-04T11:37:10.287Z,5.26
2018-03-04T11:38:10.126Z,5.41
2018-03-04T11:39:10.096Z,5.52
2018-03-04T11:40:09.960Z,5.60
2018-03-04T11:41:09.903Z,5.57
2018-03-04T11:42:09.825Z,5.67
2018-03-04T11:43:09.813Z,5.70
2018-03-04T11:44:09.643Z,5.65
2018-03-04T11:45:09.631Z,5.77
2018-03-04T11:46:09.487Z,5.81
2018-03-04T11:47:09.431Z,5.75
2018-03-04T11:48:09.330Z,5.81
2018-03-04T11:49:09.342Z,5.85
2018-03-04T11:50:09.167Z,5.71
2018-03-04T11:51:09.152Z,5.81
2018-03-04T11:52:09.015Z,5.77
2018-03-04T11:53:08.962Z,5.81
2018-03-04T11:54:08.857Z,5.81
2018-03-04T11:55:08.872Z,5.77
2018-03-04T11:56:08.696Z,5.68
2018-03-04T11:57:08.620Z,5.59
2018-03-04T11:58:08.581Z,5.54
2018-03-04T11:59:08.460Z,5.59
2018-03-04T12:00:08.385Z,5.59
2018-03-04T12:01:08.396Z,5.59
2018-03-04T12:02:08.225Z,5.54
2018-03-04T12:03:08.149Z,5.52
2018-03-04T12:04:08.111Z,5.59
2018-03-04T12:05:08.029Z,5.60
2018-03-04T12:06:07.911Z,5.62
2018-03-04T12:07:07.922Z,5.70
2018-03-04T12:08:07.755Z,5.74
2018-03-04T12:09:07.678Z,5.85
2018-03-04T12:10:07.643Z,5.83
2018-03-04T12:11:07.519Z,5.81
2018-03-04T12:12:07.965Z,5.86
2018-03-04T12:13:07.450Z,5.92
2018-03-04T12:14:07.283Z,5.89
2018-03-04T12:15:07.206Z,5.93
2018-03-04T12:16:07.136Z,6.10
2018-03-04T12:17:07.047Z,6.18
2018-03-04T12:18:06.972Z,6.32
2018-03-04T12:19:06.980Z,6.26
2018-03-04T12:20:06.817Z,6.17
2018-03-04T12:21:06.746Z,6.11
2018-03-04T12:22:06.689Z,6.17
2018-03-04T12:23:06.579Z,6.32
2018-03-04T12:24:06.503Z,6.17
2018-03-04T12:25:06.506Z,6.39
2018-03-04T12:26:06.351Z,6.39
2018-03-04T12:27:06.270Z,6.42
2018-03-04T12:28:06.220Z,6.54
2018-03-04T12:29:06.112Z,6.45
2018-03-04T12:30:06.040Z,6.45
2018-03-04T12:31:06.032Z,6.44
2018-03-04T12:32:05.880Z,6.48
2018-03-04T12:33:05.802Z,6.41
2018-03-04T12:34:05.744Z,6.52
2018-03-04T12:35:05.644Z,6.50
2018-03-04T12:36:05.566Z,6.66
2018-03-04T12:37:05.562Z,6.66
2018-03-04T12:38:05.411Z,6.75
2018-03-04T12:39:05.332Z,6.83
2018-03-04T12:40:05.284Z,6.91
2018-03-04T12:41:05.179Z,6.90
2018-03-04T12:42:05.101Z,6.91
2018-03-04T12:43:05.086Z,6.93
2018-03-04T12:44:04.955Z,6.87
2018-03-04T12:45:04.869Z,6.91
2018-03-04T12:46:04.921Z,6.93
2018-03-04T12:47:04.717Z,6.93
2018-03-04T12:48:04.632Z,6.87
2018-03-04T12:49:04.616Z,6.83
2018-03-04T12:50:04.493Z,6.90
2018-03-04T12:51:04.412Z,6.90
2018-03-04T12:52:04.329Z,6.75
2018-03-04T12:53:04.331Z,6.80
2018-03-04T12:54:04.174Z,6.75
2018-03-04T12:55:04.113Z,6.91
2018-03-04T12:56:04.023Z,6.90
2018-03-04T12:57:03.935Z,6.88
2018-03-04T12:58:03.957Z,6.93
2018-03-04T12:59:03.782Z,7.01
2018-03-04T13:00:03.706Z,7.06
2018-03-04T13:01:03.671Z,7.21
2018-03-04T13:02:03.555Z,7.13
2018-03-04T13:03:03.474Z,7.26
2018-03-04T13:04:03.486Z,7.41
2018-03-04T13:05:03.320Z,7.57
2018-03-04T13:06:03.242Z,7.62
2018-03-04T13:07:03.164Z,7.44
2018-03-04T13:08:03.261Z,7.48
2018-03-04T13:09:03.010Z,7.47
2018-03-04T13:10:03.013Z,7.41
2018-03-04T13:11:02.854Z,7.39
2018-03-04T13:12:02.816Z,7.30
2018-03-04T13:13:02.723Z,7.34
2018-03-04T13:14:02.624Z,7.41
2018-03-04T13:15:02.549Z,7.39
2018-03-04T13:16:02.540Z,7.17
2018-03-04T13:17:02.391Z,7.20